createdAt,value
2022-12-08T00:01:51.511Z,21.88
2022-12-08T00:04:20.851Z,24.73
2022-12-08T00:07:06.227Z,24.27
2022-12-08T00:09:39.061Z,25.15
2022-12-08T00:12:12.640Z,26.73
2022-12-08T00:14:49.780Z,28.08
2022-12-08T00:17:17.120Z,26.58
2022-12-08T00:19:44.414Z,22.10
2022-12-08T00:22:14.624Z,28.30
2022-12-08T00:24:44.073Z,25.02
2022-12-08T00:27:13.793Z,25.10
2022-12-08T00:29:40.704Z,23.20
2022-12-08T00:32:07.489Z,28.52
2022-12-08T00:34:34.503Z,26.80
2022-12-08T00:37:03.890Z,24.88
2022-12-08T00:39:32.740Z,27.33
2022-12-08T00:42:14.453Z,24.58
2022-12-08T00:44:42.269Z,25.98
2022-12-08T00:47:11.958Z,27.38
2022-12-08T00:49:40.936Z,30.80
2022-12-08T00:52:08.052Z,26.65
2022-12-08T00:54:34.886Z,25.92
2022-12-08T00:57:01.895Z,27.38
2022-12-08T00:59:30.740Z,26.73
2022-12-08T01:01:57.436Z,26.85
2022-12-08T01:04:24.188Z,28.02
2022-12-08T01:06:50.902Z,25.60
2022-12-08T01:09:20.586Z,28.98
2022-12-08T01:11:49.799Z,26.02
2022-12-08T01:14:16.605Z,25.75
2022-12-08T01:16:45.992Z,27.85
2022-12-08T01:19:17.286Z,31.20
2022-12-08T01:21:47.679Z,29.77
2022-12-08T01:24:19.116Z,23.73
2022-12-08T01:26:48.495Z,23.17
2022-12-08T01:29:22.520Z,27.15
2022-12-08T01:31:51.641Z,25.70
2022-12-08T01:34:20.487Z,22.75
2022-12-08T01:36:49.360Z,26.48
2022-12-08T01:39:20.801Z,27.05
2022-12-08T01:41:49.903Z,22.00
2022-12-08T01:44:16.541Z,22.35
2022-12-08T01:46:45.226Z,22.85
2022-12-08T01:49:32.640Z,23.45
2022-12-08T01:52:00.557Z,25.98
2022-12-08T01:54:36.744Z,25.95
2022-12-08T01:57:20.438Z,23.35
2022-12-08T01:59:54.627Z,22.38
2022-12-08T02:02:21.507Z,21.95
2022-12-08T02:04:48.308Z,22.00
2022-12-08T02:07:16.328Z,23.10
2022-12-08T02:09:47.810Z,23.95
2022-12-08T02:12:17.216Z,22.33
2022-12-08T02:14:46.044Z,21.73
2022-12-08T02:17:43.961Z,19.25
2022-12-08T02:20:29.970Z,16.75
2022-12-08T02:23:14.717Z,20.95
2022-12-08T02:26:09.214Z,17.38
2022-12-08T02:28:50.861Z,16.58
2022-12-08T02:31:40.913Z,20.60
2022-12-08T02:34:30.962Z,18.77
2022-12-08T02:37:02.910Z,17.23
2022-12-08T02:39:42.086Z,18.77
2022-12-08T02:42:33.877Z,20.20
2022-12-08T02:45:03.472Z,19.55
2022-12-08T02:47:31.817Z,20.27
2022-12-08T02:49:59.437Z,16.52
2022-12-08T02:52:26.065Z,18.13
2022-12-08T02:55:09.340Z,16.60
2022-12-08T02:57:44.133Z,20.08
2022-12-08T03:00:20.544Z,17.37
2022-12-08T03:02:47.179Z,19.08
2022-12-08T03:05:32.031Z,17.50
2022-12-08T03:08:04.622Z,21.85
2022-12-08T03:10:53.509Z,14.57
2022-12-08T03:13:30.690Z,19.02
2022-12-08T03:16:01.514Z,15.88
2022-12-08T03:18:32.953Z,17.70
2022-12-08T03:21:02.194Z,17.65
2022-12-08T03:23:30.678Z,17.13
2022-12-08T03:26:10.622Z,12.95
2022-12-08T03:28:38.015Z,16.58
2022-12-08T03:31:09.898Z,17.40
2022-12-08T03:33:41.002Z,18.95
2022-12-08T03:36:12.257Z,17.88
2022-12-08T03:38:43.080Z,19.08
2022-12-08T03:41:19.733Z,19.52
2022-12-08T03:43:50.150Z,13.98
2022-12-08T03:46:18.359Z,16.42
2022-12-08T03:48:45.258Z,16.92
2022-12-08T03:51:12.070Z,15.68
2022-12-08T03:53:38.883Z,16.15
2022-12-08T03:56:15.995Z,15.00
2022-12-08T03:58:43.848Z,15.55
2022-12-08T04:01:10.765Z,18.17
2022-12-08T04:03:39.863Z,14.15
2022-12-08T04:06:07.502Z,14.45
2022-12-08T04:08:34.437Z,15.57
2022-12-08T04:11:03.566Z,12.32
2022-12-08T04:13:30.267Z,15.30
2022-12-08T04:15:56.931Z,15.23
2022-12-08T04:18:30.859Z,17.70
2022-12-08T04:20:57.599Z,16.45
2022-12-08T04:23:24.245Z,15.98
2022-12-08T04:25:54.065Z,15.57
2022-12-08T04:28:21.694Z,14.57
2022-12-08T04:30:50.899Z,18.08
2022-12-08T04:33:17.551Z,16.60
2022-12-08T04:35:48.759Z,14.40
2022-12-08T04:38:20.712Z,16.10
2022-12-08T04:40:49.627Z,17.67
2022-12-08T04:43:18.910Z,15.32
2022-12-08T04:45:48.562Z,19.90
2022-12-08T04:48:15.455Z,21.42
2022-12-08T04:50:43.991Z,20.40
2022-12-08T04:53:12.463Z,14.68
2022-12-08T04:55:49.672Z,18.70
2022-12-08T04:58:22.259Z,20.95
2022-12-08T05:00:51.440Z,20.48
2022-12-08T05:03:19.053Z,19.27
2022-12-08T05:05:48.203Z,20.83
2022-12-08T05:08:14.900Z,23.98
2022-12-08T05:10:44.086Z,21.35
2022-12-08T05:13:10.795Z,24.58
2022-12-08T05:15:37.431Z,23.35
2022-12-08T05:18:08.016Z,23.90
2022-12-08T05:20:35.425Z,24.00
2022-12-08T05:23:02.193Z,25.15
2022-12-08T05:25:31.054Z,26.52
2022-12-08T05:28:24.650Z,23.80
2022-12-08T05:30:46.837Z,24.55
2022-12-08T05:33:16.339Z,30.55
2022-12-08T05:35:45.592Z,28.52
2022-12-08T05:38:16.974Z,29.65
2022-12-08T05:40:43.614Z,31.85
2022-12-08T05:43:11.380Z,28.48
2022-12-08T05:45:42.744Z,30.60
2022-12-08T05:48:09.472Z,30.48
2022-12-08T05:50:36.403Z,30.73
2022-12-08T05:53:05.606Z,28.90
2022-12-08T05:55:37.029Z,34.45
2022-12-08T05:58:07.976Z,31.17
2022-12-08T06:00:37.347Z,29.42
2022-12-08T06:03:04.178Z,31.77
2022-12-08T06:05:34.765Z,30.17
2022-12-08T06:08:02.074Z,31.17
2022-12-08T06:10:31.110Z,31.70
2022-12-08T06:13:00.043Z,30.60
2022-12-08T06:15:26.942Z,30.70
2022-12-08T06:17:55.743Z,32.08
2022-12-08T06:20:22.444Z,30.17
2022-12-08T06:22:50.654Z,32.13
2022-12-08T06:25:17.413Z,27.08
2022-12-08T06:27:44.115Z,26.35
2022-12-08T06:30:11.133Z,28.75
2022-12-08T06:32:37.881Z,29.50
2022-12-08T06:35:04.957Z,28.17
2022-12-08T06:37:36.166Z,29.63
2022-12-08T06:40:05.880Z,28.90
2022-12-08T06:42:47.037Z,29.42
2022-12-08T06:45:17.810Z,27.90
2022-12-08T06:47:46.988Z,30.23
2022-12-08T06:50:15.901Z,30.95
2022-12-08T06:52:56.909Z,28.50
2022-12-08T06:58:22.502Z,26.45
2022-12-08T07:00:51.605Z,26.27
2022-12-08T07:03:20.987Z,26.83
2022-12-08T07:05:47.705Z,35.38
2022-12-08T07:08:14.730Z,25.55
2022-12-08T07:10:43.695Z,26.05
2022-12-08T07:13:10.425Z,25.52
2022-12-08T07:15:39.527Z,23.83
2022-12-08T07:18:08.453Z,25.17
2022-12-08T07:20:35.081Z,25.17
2022-12-08T07:23:01.764Z,26.40
2022-12-08T07:25:30.981Z,20.95
2022-12-08T07:27:59.909Z,31.85
2022-12-08T07:30:26.652Z,23.42
2022-12-08T07:32:53.313Z,31.25
2022-12-08T07:35:23.156Z,28.02
2022-12-08T07:37:52.630Z,28.08
2022-12-08T07:40:19.449Z,28.48
2022-12-08T07:42:46.185Z,19.67
2022-12-08T07:45:12.856Z,23.52
2022-12-08T07:47:41.720Z,23.27
2022-12-08T07:50:08.650Z,23.17
2022-12-08T07:52:35.825Z,27.30
2022-12-08T07:55:02.687Z,27.98
2022-12-08T07:57:31.525Z,30.05
2022-12-08T08:00:00.484Z,30.17
2022-12-08T08:02:29.827Z,29.15
2022-12-08T08:05:01.407Z,31.55
2022-12-08T08:07:30.278Z,31.02
2022-12-08T08:09:56.981Z,24.95
2022-12-08T08:12:33.509Z,26.63
2022-12-08T08:15:09.952Z,23.95
2022-12-08T08:17:37.817Z,28.48
2022-12-08T08:20:08.335Z,26.85
2022-12-08T08:22:36.161Z,34.00
2022-12-08T08:25:03.177Z,28.13
2022-12-08T08:27:29.919Z,25.88
2022-12-08T08:29:56.615Z,26.10
2022-12-08T08:32:25.859Z,28.63
2022-12-08T08:34:54.978Z,28.13
2022-12-08T08:37:21.726Z,29.00
2022-12-08T08:39:50.907Z,25.80
2022-12-08T08:42:17.797Z,25.63
2022-12-08T08:44:44.481Z,25.13
2022-12-08T08:47:14.086Z,22.90
2022-12-08T08:49:43.302Z,26.98
2022-12-08T08:52:11.145Z,23.42
2022-12-08T08:54:40.504Z,21.30
2022-12-08T08:57:09.799Z,21.30
2022-12-08T08:59:36.467Z,23.52
2022-12-08T09:02:05.530Z,20.98
2022-12-08T09:04:37.017Z,22.58
2022-12-08T09:07:03.765Z,21.50
2022-12-08T09:09:31.146Z,21.00
2022-12-08T09:12:00.361Z,22.13
2022-12-08T09:14:27.888Z,19.98
2022-12-08T09:16:54.595Z,17.65
2022-12-08T09:19:21.350Z,13.80
2022-12-08T09:21:48.071Z,17.70
2022-12-08T09:24:17.746Z,17.10
2022-12-08T09:26:45.540Z,15.50
2022-12-08T09:29:13.639Z,15.68
2022-12-08T09:31:43.405Z,16.27
2022-12-08T09:34:14.671Z,16.55
2022-12-08T09:36:46.092Z,11.40
2022-12-08T09:39:12.831Z,18.10
2022-12-08T09:41:47.812Z,12.00
2022-12-08T09:44:38.024Z,12.88
2022-12-08T09:47:14.183Z,12.63
2022-12-08T09:49:47.854Z,11.25
2022-12-08T09:52:26.416Z,13.68
2022-12-08T09:54:56.820Z,12.27
2022-12-08T09:57:30.305Z,11.85
2022-12-08T10:00:03.444Z,10.85
2022-12-08T10:02:31.045Z,9.65
2022-12-08T10:04:59.283Z,9.10
2022-12-08T10:07:48.279Z,8.55
2022-12-08T10:10:39.385Z,6.47
2022-12-08T10:13:12.248Z,8.25
2022-12-08T10:15:58.885Z,6.82
2022-12-08T10:18:33.765Z,9.13
2022-12-08T10:21:30.316Z,16.03
2022-12-08T10:26:33.104Z,17.40
2022-12-08T10:29:04.371Z,15.27
2022-12-08T10:31:32.302Z,13.98
2022-12-08T10:34:01.775Z,16.90
2022-12-08T10:36:47.217Z,16.35
2022-12-08T10:39:43.895Z,15.68
2022-12-08T10:42:23.688Z,17.13
2022-12-08T10:45:08.815Z,17.92
2022-12-08T10:47:38.257Z,14.45
2022-12-08T10:50:23.354Z,14.98
2022-12-08T10:53:02.984Z,17.85
2022-12-08T10:55:41.392Z,17.02
2022-12-08T10:58:30.747Z,16.83
2022-12-08T11:01:21.207Z,16.23
2022-12-08T11:03:55.315Z,14.88
2022-12-08T11:06:28.627Z,11.93
2022-12-08T11:09:03.187Z,11.05
2022-12-08T11:11:57.538Z,12.68
2022-12-08T11:14:32.188Z,12.85
2022-12-08T11:17:09.357Z,7.70
2022-12-08T11:19:41.241Z,5.53
2022-12-08T11:22:37.560Z,33.40
2022-12-08T11:25:21.828Z,7.15
2022-12-08T11:28:03.918Z,9.07
2022-12-08T11:30:43.060Z,9.30
2022-12-08T11:33:15.606Z,12.40
2022-12-08T11:35:45.534Z,7.75
2022-12-08T11:38:21.607Z,6.13
2022-12-08T11:41:16.077Z,4.70
2022-12-08T11:43:53.927Z,6.18
2022-12-08T11:46:25.844Z,6.35
2022-12-08T11:49:10.929Z,5.10
2022-12-08T11:51:50.836Z,4.90
2022-12-08T11:54:28.625Z,6.55
2022-12-08T11:57:01.246Z,8.57
2022-12-08T11:59:39.537Z,10.70
2022-12-08T12:02:18.281Z,8.32
2022-12-08T12:04:55.352Z,8.55
2022-12-08T12:07:58.296Z,16.08
2022-12-08T12:10:32.450Z,13.20
2022-12-08T12:13:28.094Z,17.02
2022-12-08T12:16:10.245Z,11.97
2022-12-08T12:18:45.185Z,15.15
2022-12-08T12:21:36.326Z,15.02
2022-12-08T12:24:25.478Z,13.70
2022-12-08T12:27:07.197Z,14.95
2022-12-08T12:29:37.326Z,19.58
2022-12-08T12:32:09.366Z,20.00
2022-12-08T12:34:49.800Z,19.70
2022-12-08T12:37:23.657Z,16.40
2022-12-08T12:39:55.823Z,19.20
2022-12-08T12:42:54.930Z,23.40
2022-12-08T12:45:21.698Z,20.00
2022-12-08T12:47:55.942Z,19.15
2022-12-08T12:50:37.662Z,23.92
2022-12-08T12:53:28.495Z,17.83
2022-12-08T12:55:58.528Z,20.05
2022-12-08T12:58:28.197Z,15.63
2022-12-08T13:01:15.436Z,19.92
2022-12-08T13:04:03.627Z,21.23
2022-12-08T13:06:43.437Z,18.52
2022-12-08T13:09:39.835Z,16.00
2022-12-08T13:12:22.625Z,15.23
2022-12-08T13:14:51.053Z,21.42
2022-12-08T13:17:28.521Z,12.88
2022-12-08T13:20:01.608Z,13.45
2022-12-08T13:22:50.490Z,12.57
2022-12-08T13:25:45.002Z,14.02
2022-12-08T13:28:29.005Z,15.68
2022-12-08T13:31:03.179Z,15.32
2022-12-08T13:33:48.301Z,12.05
2022-12-08T13:36:22.818Z,11.45
2022-12-08T13:38:56.000Z,12.80
2022-12-08T13:41:29.394Z,12.45
2022-12-08T13:45:03.694Z,8.48
2022-12-08T13:59:34.158Z,10.05
2022-12-08T14:02:18.166Z,12.15
2022-12-08T14:07:36.022Z,15.02
2022-12-08T14:10:07.431Z,11.23
2022-12-08T14:12:37.166Z,12.55
2022-12-08T14:15:06.916Z,16.42
2022-12-08T14:17:36.113Z,11.98
2022-12-08T14:20:11.931Z,13.43
2022-12-08T14:22:40.941Z,14.70
2022-12-08T14:25:17.076Z,12.25
2022-12-08T14:27:49.144Z,12.02
2022-12-08T14:30:21.259Z,12.35
2022-12-08T14:32:59.110Z,10.65
2022-12-08T14:35:35.683Z,9.70
2022-12-08T14:38:13.536Z,12.95
2022-12-08T14:40:46.360Z,10.93
2022-12-08T14:43:19.871Z,10.43
2022-12-08T14:45:50.207Z,11.07
2022-12-08T14:48:33.642Z,11.98
2022-12-08T14:51:19.011Z,16.00
2022-12-08T14:54:03.867Z,10.48
2022-12-08T14:56:40.404Z,13.30
2022-12-08T14:59:20.794Z,10.60
2022-12-08T15:01:51.795Z,14.35
2022-12-08T15:04:24.268Z,10.57
2022-12-08T15:06:56.747Z,11.57
2022-12-08T15:09:34.720Z,13.65
2022-12-08T15:12:11.899Z,13.07
2022-12-08T15:14:42.563Z,12.90
2022-12-08T15:17:40.387Z,11.25
2022-12-08T15:20:35.309Z,14.82
2022-12-08T15:23:02.678Z,12.80
2022-12-08T15:25:32.056Z,11.35
2022-12-08T15:27:58.792Z,11.70
2022-12-08T15:30:29.752Z,10.75
2022-12-08T15:32:56.824Z,11.35
2022-12-08T15:35:26.150Z,10.95
2022-12-08T15:37:52.851Z,10.77
2022-12-08T15:40:22.909Z,11.43
2022-12-08T15:42:51.879Z,14.27
2022-12-08T15:45:28.617Z,8.68
2022-12-08T15:47:55.992Z,11.60
2022-12-08T15:50:23.958Z,14.27
2022-12-08T15:52:53.203Z,15.75
2022-12-08T15:55:20.941Z,13.05
2022-12-08T15:58:51.070Z,8.30
2022-12-08T16:00:58.123Z,10.07
2022-12-08T16:09:17.212Z,9.85
2022-12-08T16:12:07.715Z,10.25
2022-12-08T16:17:25.744Z,11.13
2022-12-08T16:19:52.388Z,10.43
2022-12-08T16:25:18.367Z,10.27
2022-12-08T16:30:33.400Z,8.85
2022-12-08T16:33:00.081Z,14.77
2022-12-08T16:35:26.755Z,10.95
2022-12-08T16:37:53.554Z,10.40
2022-12-08T16:40:20.424Z,12.15
2022-12-08T16:42:49.038Z,17.30
2022-12-08T16:45:20.053Z,13.18
2022-12-08T16:47:55.655Z,14.20
2022-12-08T16:50:28.151Z,14.60
2022-12-08T16:52:59.155Z,11.23
2022-12-08T16:55:28.670Z,12.73
2022-12-08T16:57:59.954Z,11.05
2022-12-08T17:00:28.458Z,15.13
2022-12-08T17:02:58.977Z,12.35
2022-12-08T17:05:26.649Z,16.00
2022-12-08T17:07:54.493Z,14.98
2022-12-08T17:10:25.168Z,15.45
2022-12-08T17:12:52.062Z,12.93
2022-12-08T17:15:21.105Z,11.13
2022-12-08T17:17:48.380Z,11.23
2022-12-08T17:20:24.259Z,12.13
2022-12-08T17:22:53.307Z,12.43
2022-12-08T17:25:20.090Z,11.40
2022-12-08T17:27:46.864Z,14.63
2022-12-08T17:30:15.771Z,13.88
2022-12-08T17:32:43.209Z,12.18
2022-12-08T17:35:10.399Z,13.32
2022-12-08T17:37:37.313Z,10.27
2022-12-08T17:40:04.976Z,11.90
2022-12-08T17:42:31.843Z,13.70
2022-12-08T17:44:58.527Z,10.27
2022-12-08T17:47:25.252Z,15.10
2022-12-08T17:49:52.175Z,12.45
2022-12-08T17:52:18.867Z,14.52
2022-12-08T17:54:45.560Z,13.50
2022-12-08T17:57:14.849Z,13.73
2022-12-08T17:59:41.607Z,14.00
2022-12-08T18:02:14.173Z,11.70
2022-12-08T18:04:40.892Z,10.80
2022-12-08T18:07:07.598Z,10.73
2022-12-08T18:09:34.428Z,11.57
2022-12-08T18:12:01.168Z,9.40
2022-12-08T18:14:28.028Z,13.20
2022-12-08T18:16:54.763Z,10.07
2022-12-08T18:19:21.963Z,12.18
2022-12-08T18:21:48.638Z,12.30
2022-12-08T18:24:22.021Z,11.35
2022-12-08T18:26:56.216Z,12.18
2022-12-08T18:29:23.687Z,10.55
2022-12-08T18:31:51.161Z,11.95
2022-12-08T18:34:19.036Z,9.45
2022-12-08T18:36:48.457Z,12.02
2022-12-08T18:39:26.688Z,10.43
2022-12-08T18:41:54.101Z,8.98
2022-12-08T18:44:20.869Z,11.88
2022-12-08T18:46:48.019Z,11.35
2022-12-08T18:49:16.528Z,11.98
2022-12-08T18:51:43.757Z,10.07
2022-12-08T18:54:11.735Z,13.55
2022-12-08T18:56:39.271Z,9.52
2022-12-08T18:59:08.868Z,12.52
2022-12-08T19:01:37.745Z,12.57
2022-12-08T19:06:56.201Z,11.07
2022-12-08T19:09:24.411Z,11.93
2022-12-08T19:11:51.136Z,13.68
2022-12-08T19:14:25.852Z,11.88
2022-12-08T19:16:59.224Z,11.98
2022-12-08T19:19:29.647Z,12.45
2022-12-08T19:21:59.865Z,16.52
2022-12-08T19:24:30.304Z,14.50
2022-12-08T19:26:57.414Z,11.98
2022-12-08T19:29:24.155Z,11.55
2022-12-08T19:31:50.961Z,16.40
2022-12-08T19:34:20.142Z,14.48
2022-12-08T19:36:47.709Z,14.25
2022-12-08T19:39:52.338Z,12.82
2022-12-08T19:42:38.692Z,15.60
2022-12-08T19:45:12.189Z,12.25
2022-12-08T19:47:39.715Z,12.52
2022-12-08T19:50:27.388Z,10.85
2022-12-08T19:52:57.108Z,16.45
2022-12-08T19:55:28.068Z,14.77
2022-12-08T19:57:56.647Z,13.90
2022-12-08T20:00:23.990Z,12.18
2022-12-08T20:02:51.250Z,15.07
2022-12-08T20:05:17.976Z,11.77
2022-12-08T20:07:44.812Z,13.98
2022-12-08T20:10:22.149Z,11.25
2022-12-08T20:12:49.073Z,13.05
2022-12-08T20:15:15.938Z,13.05
2022-12-08T20:17:43.611Z,18.50
2022-12-08T20:20:12.238Z,15.50
2022-12-08T20:22:39.112Z,12.23
2022-12-08T20:25:13.246Z,12.13
2022-12-08T20:27:40.511Z,13.18
2022-12-08T20:30:13.343Z,18.08
2022-12-08T20:32:43.515Z,17.50
2022-12-08T20:35:12.261Z,15.60
2022-12-08T20:37:38.963Z,16.63
2022-12-08T20:40:06.560Z,15.80
2022-12-08T20:42:33.247Z,16.55
2022-12-08T20:44:59.917Z,14.93
2022-12-08T20:47:26.964Z,15.52
2022-12-08T20:49:53.889Z,12.90
2022-12-08T20:52:23.076Z,15.68
2022-12-08T20:54:49.907Z,12.93
2022-12-08T20:57:16.637Z,16.52
2022-12-08T20:59:46.156Z,15.70
2022-12-08T21:02:13.124Z,17.33
2022-12-08T21:04:41.792Z,16.48
2022-12-08T21:07:09.021Z,18.10
2022-12-08T21:09:39.891Z,19.63
2022-12-08T21:12:07.258Z,15.48
2022-12-08T21:14:34.025Z,15.98
2022-12-08T21:17:05.321Z,18.42
2022-12-08T21:19:32.186Z,17.50
2022-12-08T21:21:58.982Z,18.30
2022-12-08T21:24:31.996Z,20.13
2022-12-08T21:27:00.849Z,16.63
2022-12-08T21:29:27.727Z,23.42
2022-12-08T21:31:57.310Z,17.02
2022-12-08T21:34:25.174Z,17.40
2022-12-08T21:36:52.918Z,19.27
2022-12-08T21:39:20.512Z,12.85
2022-12-08T21:42:05.969Z,14.95
2022-12-08T21:44:35.400Z,16.08
2022-12-08T21:47:06.035Z,15.52
2022-12-08T21:49:33.025Z,15.50
2022-12-08T21:51:59.867Z,18.20
2022-12-08T21:54:26.818Z,18.05
2022-12-08T21:56:53.520Z,15.88
2022-12-08T21:59:20.826Z,14.15
2022-12-08T22:01:47.884Z,14.60
2022-12-08T22:04:18.055Z,14.68
2022-12-08T22:06:45.230Z,16.17
2022-12-08T22:09:15.286Z,13.38
2022-12-08T22:11:45.607Z,15.50
2022-12-08T22:14:17.430Z,17.52
2022-12-08T22:16:44.520Z,18.92
2022-12-08T22:19:12.216Z,14.27
2022-12-08T22:21:43.338Z,17.00
2022-12-08T22:24:12.650Z,15.07
2022-12-08T22:26:39.339Z,16.60
2022-12-08T22:29:06.003Z,16.90
2022-12-08T22:31:35.187Z,22.42
2022-12-08T22:34:01.900Z,21.10
2022-12-08T22:36:31.127Z,13.25
2022-12-08T22:39:02.026Z,16.25
2022-12-08T22:41:28.971Z,16.92
2022-12-08T22:43:55.698Z,18.60
2022-12-08T22:46:26.813Z,17.00
2022-12-08T22:48:55.211Z,14.60
2022-12-08T22:51:22.445Z,14.80
2022-12-08T22:53:49.549Z,14.73
2022-12-08T22:56:17.260Z,13.80
2022-12-08T22:58:45.513Z,17.55
2022-12-08T23:01:25.456Z,16.95
2022-12-08T23:03:52.591Z,15.43
2022-12-08T23:06:22.128Z,14.35
2022-12-08T23:08:54.394Z,18.77
2022-12-08T23:11:23.953Z,15.85
2022-12-08T23:13:50.742Z,14.85
2022-12-08T23:16:17.612Z,20.40
2022-12-08T23:18:46.364Z,14.43
2022-12-08T23:21:18.118Z,15.90
2022-12-08T23:23:45.127Z,16.42
2022-12-08T23:26:22.551Z,16.23
2022-12-08T23:28:49.609Z,15.77
2022-12-08T23:31:16.893Z,18.73
2022-12-08T23:33:43.867Z,19.13
2022-12-08T23:36:11.828Z,18.20
2022-12-08T23:38:41.056Z,21.60
2022-12-08T23:41:10.105Z,18.40
2022-12-08T23:43:39.702Z,18.80
2022-12-08T23:46:11.251Z,18.95
2022-12-08T23:48:40.567Z,17.60
2022-12-08T23:51:07.372Z,18.65
2022-12-08T23:53:36.882Z,18.10
2022-12-08T23:56:08.977Z,14.23
2022-12-08T23:58:39.099Z,21.95
